createdAt,value
2017-10-16T00:00:40.641Z,100163.03
2017-10-16T00:04:44.859Z,100159.48
2017-10-16T00:08:48.359Z,100154.66
2017-10-16T00:12:51.811Z,100156.57
2017-10-16T00:16:55.297Z,100163.94
2017-10-16T00:20:59.516Z,100157.66
2017-10-16T00:25:03.781Z,100153.69
2017-10-16T00:29:07.270Z,100154.78
2017-10-16T00:33:10.743Z,100152.05
2017-10-16T00:37:14.199Z,100156.69
2017-10-16T00:41:17.678Z,100151.33
2017-10-16T00:45:21.898Z,100160.48
2017-10-16T00:49:26.138Z,100164.42
2017-10-16T00:53:29.593Z,100169.20
2017-10-16T00:57:33.088Z,100168.38
2017-10-16T01:01:36.546Z,100165.20
2017-10-16T01:05:40.843Z,100158.64
2017-10-16T01:09:44.291Z,100156.86
2017-10-16T01:13:48.548Z,100157.41
2017-10-16T01:17:52.001Z,100148.38
2017-10-16T01:21:55.483Z,100152.07
2017-10-16T01:25:58.926Z,100144.96
2017-10-16T01:30:03.181Z,100146.43
2017-10-16T01:34:06.634Z,100140.69
2017-10-16T01:38:10.120Z,100146.15
2017-10-16T01:42:13.605Z,100145.61
2017-10-16T01:46:17.086Z,100144.50
2017-10-16T01:50:21.306Z,100145.45
2017-10-16T01:54:25.546Z,100143.55
2017-10-16T01:58:28.983Z,100135.20
2017-10-16T02:02:32.458Z,100133.94
2017-10-16T02:06:35.916Z,100124.92
2017-10-16T02:10:39.404Z,100125.60
2017-10-16T02:14:42.890Z,100123.28
2017-10-16T02:18:46.374Z,100118.50
2017-10-16T02:22:50.607Z,100123.95
2017-10-16T02:26:54.117Z,100129.65
2017-10-16T02:30:57.586Z,100129.78
2017-10-16T02:35:01.070Z,100132.23
2017-10-16T02:39:04.514Z,100133.19
2017-10-16T02:43:07.992Z,100135.51
2017-10-16T02:47:11.458Z,100131.55
2017-10-16T02:51:14.927Z,100129.90
2017-10-16T02:55:18.378Z,100127.68
2017-10-16T02:59:21.866Z,100119.08
2017-10-16T03:03:26.086Z,100114.70
2017-10-16T03:07:30.335Z,100120.30
2017-10-16T03:11:33.774Z,100117.16
2017-10-16T03:15:37.267Z,100118.11
2017-10-16T03:19:40.728Z,100116.33
2017-10-16T03:23:44.206Z,100117.00
2017-10-16T03:27:47.659Z,100121.10
2017-10-16T03:31:51.898Z,100113.01
2017-10-16T03:35:55.364Z,100118.47
2017-10-16T03:39:58.845Z,100125.84
2017-10-16T03:44:02.304Z,100127.34
2017-10-16T03:48:06.597Z,100124.61
2017-10-16T03:52:10.046Z,100124.61
2017-10-16T03:56:13.530Z,100120.64
2017-10-16T04:00:16.986Z,100124.45
2017-10-16T04:04:20.470Z,100125.95
2017-10-16T04:08:23.918Z,100124.18
2017-10-16T04:12:27.407Z,100127.01
2017-10-16T04:16:30.854Z,100128.78
2017-10-16T04:20:34.339Z,100126.86
2017-10-16T04:24:37.794Z,100129.88
2017-10-16T04:28:42.044Z,100125.50
2017-10-16T04:32:45.490Z,100120.58
2017-10-16T04:36:48.990Z,100111.16
2017-10-16T04:40:52.452Z,100118.52
2017-10-16T04:44:55.938Z,100120.81
2017-10-16T04:49:00.153Z,100132.69
2017-10-16T04:53:03.645Z,100136.50
2017-10-16T04:57:07.100Z,100125.84
2017-10-16T05:01:10.575Z,100136.63
2017-10-16T05:05:14.803Z,100138.95
2017-10-16T05:09:18.332Z,100154.64
2017-10-16T05:13:22.546Z,100151.50
2017-10-16T05:17:26.918Z,100137.12
2017-10-16T05:21:30.371Z,100131.25
2017-10-16T05:25:33.861Z,100124.56
2017-10-16T05:29:37.326Z,100133.58
2017-10-16T05:33:40.783Z,100126.05
2017-10-16T05:37:44.226Z,100137.26
2017-10-16T05:41:48.475Z,100142.56
2017-10-16T05:45:51.924Z,100136.41
2017-10-16T05:49:55.450Z,100135.56
2017-10-16T05:53:59.675Z,100144.36
2017-10-16T05:58:03.925Z,100148.02
2017-10-16T06:02:07.374Z,100153.83
2017-10-16T06:06:10.866Z,100157.98
2017-10-16T06:10:14.320Z,100160.38
2017-10-16T06:14:18.679Z,100149.69
2017-10-16T06:18:22.131Z,100152.63
2017-10-16T06:22:25.622Z,100159.28
2017-10-16T06:26:29.066Z,100169.32
2017-10-16T06:30:32.558Z,100165.83
2017-10-16T06:34:36.011Z,100164.65
2017-10-16T06:38:39.499Z,100157.97
2017-10-16T06:42:43.732Z,100154.35
2017-10-16T06:46:47.993Z,100161.88
2017-10-16T06:50:51.452Z,100170.25
2017-10-16T06:54:55.708Z,100159.59
2017-10-16T06:58:59.159Z,100171.22
2017-10-16T07:03:02.652Z,100170.39
2017-10-16T07:07:06.111Z,100179.28
2017-10-16T07:11:10.354Z,100174.23
2017-10-16T07:15:13.812Z,100167.39
2017-10-16T07:19:17.483Z,100166.03
2017-10-16T07:23:20.944Z,100169.72
2017-10-16T07:27:24.426Z,100166.98
2017-10-16T07:31:27.895Z,100176.00
2017-10-16T07:35:31.370Z,100181.47
2017-10-16T07:39:35.583Z,100186.39
2017-10-16T07:43:39.062Z,100186.94
2017-10-16T07:47:42.514Z,100200.06
2017-10-16T07:51:46.760Z,100195.00
2017-10-16T07:55:50.229Z,100200.06
2017-10-16T07:59:53.726Z,100201.42
2017-10-16T08:03:57.177Z,100201.02
2017-10-16T08:08:00.651Z,100198.83
2017-10-16T08:12:04.144Z,100210.04
2017-10-16T08:16:07.629Z,100202.38
2017-10-16T08:20:11.137Z,100200.61
2017-10-16T08:24:14.744Z,100208.27
2017-10-16T08:28:18.231Z,100214.99
2017-10-16T08:32:21.708Z,100216.64
2017-10-16T08:36:25.163Z,100203.47
2017-10-16T08:40:28.647Z,100199.43
2017-10-16T08:44:32.096Z,100214.79
2017-10-16T08:48:35.619Z,100212.88
2017-10-16T08:52:39.063Z,100216.02
2017-10-16T08:56:43.328Z,100217.94
2017-10-16T09:00:46.781Z,100215.20
2017-10-16T09:04:51.026Z,100214.92
2017-10-16T09:08:54.478Z,100210.41
2017-10-16T09:12:57.963Z,100209.17
2017-10-16T09:17:01.415Z,100217.38
2017-10-16T09:21:05.669Z,100231.69
2017-10-16T09:25:09.118Z,100230.86
2017-10-16T09:29:12.598Z,100228.53
2017-10-16T09:33:16.055Z,100230.72
2017-10-16T09:37:19.558Z,100234.41
2017-10-16T09:41:23.126Z,100221.83
2017-10-16T09:45:26.620Z,100229.07
2017-10-16T09:49:30.064Z,100227.80
2017-10-16T09:53:33.552Z,100222.88
2017-10-16T09:57:37.057Z,100214.69
2017-10-16T10:01:40.542Z,100206.62
2017-10-16T10:05:44.760Z,100200.20
2017-10-16T10:09:48.998Z,100208.39
2017-10-16T10:13:53.302Z,100207.44
2017-10-16T10:17:57.558Z,100220.28
2017-10-16T10:22:01.005Z,100225.62
2017-10-16T10:26:04.487Z,100226.29
2017-10-16T10:30:07.945Z,100223.42
2017-10-16T10:34:11.436Z,100224.38
2017-10-16T10:38:14.891Z,100231.21
2017-10-16T10:42:18.387Z,100228.89
2017-10-16T10:46:22.609Z,100236.68
2017-10-16T10:50:26.846Z,100242.14
2017-10-16T10:54:30.299Z,100239.83
2017-10-16T10:58:33.782Z,100240.37
2017-10-16T11:02:37.231Z,100241.19
2017-10-16T11:06:40.719Z,100226.70
2017-10-16T11:10:44.182Z,100230.94
2017-10-16T11:14:47.654Z,100234.48
2017-10-16T11:18:51.108Z,100241.05
2017-10-16T11:22:54.590Z,100252.80
2017-10-16T11:26:58.810Z,100246.79
2017-10-16T11:31:03.064Z,100247.75
2017-10-16T11:35:06.505Z,100238.18
2017-10-16T11:39:09.986Z,100238.87
2017-10-16T11:43:13.419Z,100240.00
2017-10-16T11:47:16.906Z,100221.84
2017-10-16T11:51:20.358Z,100219.56
2017-10-16T11:55:23.831Z,100223.03
2017-10-16T11:59:27.326Z,100212.39
2017-10-16T12:03:30.791Z,100212.44
2017-10-16T12:07:34.997Z,100204.14
2017-10-16T12:11:38.466Z,100191.16
2017-10-16T12:15:41.909Z,100193.49
2017-10-16T12:19:45.387Z,100185.75
2017-10-16T12:23:48.826Z,100179.80
2017-10-16T12:27:52.287Z,100174.75
2017-10-16T12:31:55.805Z,100172.95
2017-10-16T12:35:59.291Z,100169.90
2017-10-16T12:40:02.764Z,100174.09
2017-10-16T12:44:06.248Z,100181.82
2017-10-16T12:48:09.678Z,100180.52
2017-10-16T12:52:13.163Z,100175.19
2017-10-16T12:56:16.610Z,100167.41
2017-10-16T13:00:20.934Z,100167.03
2017-10-16T13:04:25.199Z,100166.95
2017-10-16T13:08:28.671Z,100177.83
2017-10-16T13:12:32.926Z,100173.00
2017-10-16T13:16:36.435Z,100166.39
2017-10-16T13:20:39.870Z,100171.52
2017-10-16T13:24:43.365Z,100169.30
2017-10-16T13:28:46.803Z,100171.61
2017-10-16T13:32:50.284Z,100171.98
2017-10-16T13:36:53.724Z,100166.51
2017-10-16T13:40:57.199Z,100160.45
2017-10-16T13:45:00.650Z,100156.08
2017-10-16T13:49:04.887Z,100156.89
2017-10-16T13:53:09.114Z,100155.76
2017-10-16T13:57:13.362Z,100161.09
2017-10-16T14:01:16.822Z,100158.63
2017-10-16T14:05:20.457Z,100159.58
2017-10-16T14:09:24.659Z,100147.09
2017-10-16T14:13:28.133Z,100146.69
2017-10-16T14:17:31.577Z,100148.19
2017-10-16T14:21:35.809Z,100140.27
2017-10-16T14:25:39.991Z,100141.22
2017-10-16T14:29:43.472Z,100132.64
2017-10-16T14:33:46.921Z,100127.99
2017-10-16T14:37:50.394Z,100123.25
2017-10-16T14:41:53.868Z,100126.84
2017-10-16T14:45:58.124Z,100136.42
2017-10-16T14:50:01.575Z,100133.99
2017-10-16T14:54:05.840Z,100122.50
2017-10-16T14:58:09.341Z,100123.73
2017-10-16T15:02:12.807Z,100133.21
2017-10-16T15:06:16.259Z,100130.61
2017-10-16T15:10:19.744Z,100134.03
2017-10-16T15:14:23.959Z,100133.48
2017-10-16T15:18:27.428Z,100131.16
2017-10-16T15:22:30.887Z,100129.17
2017-10-16T15:26:35.265Z,100130.41
2017-10-16T15:30:38.735Z,100126.58
2017-10-16T15:34:42.967Z,100121.69
2017-10-16T15:38:48.054Z,100124.70
2017-10-16T15:42:51.527Z,100126.03
2017-10-16T15:46:54.982Z,100127.67
2017-10-16T15:50:58.440Z,100126.03
2017-10-16T15:55:01.878Z,100134.10
2017-10-16T15:59:05.372Z,100130.83
2017-10-16T16:03:08.823Z,100127.84
2017-10-16T16:07:12.295Z,100125.55
2017-10-16T16:11:15.759Z,100131.88
2017-10-16T16:15:19.236Z,100130.11
2017-10-16T16:19:22.691Z,100132.95
2017-10-16T16:23:26.251Z,100133.32
2017-10-16T16:27:29.704Z,100125.93
2017-10-16T16:31:33.200Z,100128.63
2017-10-16T16:35:36.650Z,100124.53
2017-10-16T16:39:40.112Z,100134.31
2017-10-16T16:43:43.584Z,100134.30
2017-10-16T16:47:47.042Z,100133.62
2017-10-16T16:51:50.514Z,100128.70
2017-10-16T16:55:54.016Z,100137.28
2017-10-16T16:59:57.540Z,100129.75
2017-10-16T17:04:01.798Z,100135.36
2017-10-16T17:08:05.266Z,100126.98
2017-10-16T17:12:09.514Z,100131.22
2017-10-16T17:16:12.947Z,100125.88
2017-10-16T17:20:16.434Z,100130.95
2017-10-16T17:24:19.903Z,100123.28
2017-10-16T17:28:23.399Z,100120.23
2017-10-16T17:32:26.854Z,100125.84
2017-10-16T17:36:30.361Z,100121.87
2017-10-16T17:40:33.845Z,100125.70
2017-10-16T17:44:38.140Z,100133.91
2017-10-16T17:48:41.609Z,100140.47
2017-10-16T17:52:45.107Z,100135.55
2017-10-16T17:56:48.555Z,100127.86
2017-10-16T18:00:52.078Z,100128.81
2017-10-16T18:04:55.546Z,100128.81
2017-10-16T18:08:59.048Z,100127.17
2017-10-16T18:13:02.503Z,100129.91
2017-10-16T18:17:05.990Z,100133.19
2017-10-16T18:21:09.454Z,100144.13
2017-10-16T18:25:13.700Z,100134.83
2017-10-16T18:29:17.167Z,100131.13
2017-10-16T18:33:20.655Z,100130.00
2017-10-16T18:37:24.139Z,100127.27
2017-10-16T18:41:27.638Z,100133.28
2017-10-16T18:45:31.111Z,100146.00
2017-10-16T18:49:35.383Z,100145.59
2017-10-16T18:53:38.851Z,100131.92
2017-10-16T18:57:43.099Z,100142.31
2017-10-16T19:01:46.570Z,100139.17
2017-10-16T19:05:50.835Z,100146.83
2017-10-16T19:09:54.288Z,100143.58
2017-10-16T19:13:57.773Z,100145.46
2017-10-16T19:18:01.235Z,100138.63
2017-10-16T19:22:04.710Z,100148.20
2017-10-16T19:26:08.183Z,100145.59
2017-10-16T19:30:12.526Z,100154.63
2017-10-16T19:34:15.947Z,100152.84
2017-10-16T19:38:19.597Z,100150.94
2017-10-16T19:42:23.066Z,100147.92
2017-10-16T19:46:26.509Z,100144.36
2017-10-16T19:50:29.962Z,100149.42
2017-10-16T19:54:33.439Z,100143.95
2017-10-16T19:58:36.891Z,100147.23
2017-10-16T20:02:41.145Z,100152.29
2017-10-16T20:06:45.363Z,100159.54
2017-10-16T20:10:49.628Z,100158.30
2017-10-16T20:14:53.271Z,100148.87
2017-10-16T20:18:56.757Z,100145.83
2017-10-16T20:23:00.313Z,100146.23
2017-10-16T20:27:04.562Z,100157.31
2017-10-16T20:31:08.003Z,100152.39
2017-10-16T20:35:11.496Z,100153.89
2017-10-16T20:39:14.949Z,100145.82
2017-10-16T20:43:18.427Z,100144.45
2017-10-16T20:47:21.898Z,100145.00
2017-10-16T20:51:25.408Z,100143.35
2017-10-16T20:55:28.857Z,100130.73
2017-10-16T20:59:32.338Z,100127.31
2017-10-16T21:03:35.790Z,100133.74
2017-10-16T21:07:39.275Z,100130.19
2017-10-16T21:11:42.717Z,100119.48
2017-10-16T21:15:46.950Z,100119.61
2017-10-16T21:19:51.153Z,100124.63
2017-10-16T21:23:54.629Z,100127.37
2017-10-16T21:27:58.078Z,100126.13
2017-10-16T21:32:01.565Z,100121.48
2017-10-16T21:36:05.011Z,100118.98
2017-10-16T21:40:09.439Z,100129.23
2017-10-16T21:44:13.648Z,100124.68
2017-10-16T21:48:17.138Z,100126.45
2017-10-16T21:52:20.579Z,100119.20
2017-10-16T21:56:24.974Z,100113.56
2017-10-16T22:00:28.422Z,100102.76
2017-10-16T22:04:31.913Z,100099.75
2017-10-16T22:08:36.125Z,100096.73
2017-10-16T22:12:39.612Z,100102.98
2017-10-16T22:16:43.050Z,100103.27
2017-10-16T22:20:47.296Z,100102.58
2017-10-16T22:24:50.734Z,100109.68
2017-10-16T22:28:54.225Z,100101.25
2017-10-16T22:32:57.665Z,100097.56
2017-10-16T22:37:01.136Z,100099.23
2017-10-16T22:41:04.587Z,100111.64
2017-10-16T22:45:08.072Z,100097.15
2017-10-16T22:49:11.524Z,100101.37
2017-10-16T22:53:15.809Z,100092.77
2017-10-16T22:57:19.251Z,100096.70
2017-10-16T23:01:22.727Z,100089.04
2017-10-16T23:05:26.183Z,100093.12
2017-10-16T23:09:30.414Z,100097.02
2017-10-16T23:13:33.934Z,100096.33
2017-10-16T23:17:37.415Z,100103.40
2017-10-16T23:21:41.624Z,100092.33
2017-10-16T23:25:45.099Z,100093.02
2017-10-16T23:29:48.547Z,100089.73
2017-10-16T23:33:52.023Z,100089.73
2017-10-16T23:37:55.465Z,100089.73
2017-10-16T23:41:59.713Z,100091.23
2017-10-16T23:46:03.155Z,100097.80
2017-10-16T23:50:06.623Z,100099.16
2017-10-16T23:54:10.107Z,100099.97
2017-10-16T23:58:13.584Z,100094.09
